Time;durP1;ratioP1;P1;durP2;ratioP2;P2;SDS_P1;SDS_P2;PMS_P1;PMS_P2;Temp;Humidity;BMP_temperature;BMP_pressure;BME280_temperature;BME280_humidity;BME280_pressure;Samples;Min_cycle;Max_cycle;Signal;HPM_P1;HPM_P2
2021/07/28 00:00:32;;;;;;;44.38;18.48;;;;;;;15.42;87.48;101028.88;4948654;28;20031;-51
2021/07/28 00:02:57;;;;;;;36.88;17.55;;;;;;;15.43;87.53;101015.72;4950252;28;20066;-52
2021/07/28 00:05:22;;;;;;;38.05;17.92;;;;;;;15.44;87.50;101017.47;4947765;28;20110;-51
2021/07/28 00:07:48;;;;;;;37.85;15.95;;;;;;;15.40;87.37;101015.75;4952884;28;20034;-51
2021/07/28 00:10:13;;;;;;;38.05;16.75;;;;;;;15.44;87.28;101013.97;4953009;28;20081;-49
2021/07/28 00:12:38;;;;;;;33.78;16.73;;;;;;;15.41;87.11;101003.50;4951925;28;20123;-50
2021/07/28 00:15:04;;;;;;;39.25;15.75;;;;;;;15.31;87.51;101002.63;4952651;28;20033;-48
2021/07/28 00:17:31;;;;;;;37.53;15.70;;;;;;;15.37;87.21;100999.97;4946931;28;20050;-49
2021/07/28 00:25:16;;;;;;;31.70;15.55;;;;;;;15.56;86.48;101005.19;4950666;28;20085;-52
2021/07/28 00:27:41;;;;;;;30.58;14.60;;;;;;;15.62;85.75;100999.91;4946917;28;20038;-52
2021/07/28 00:30:08;;;;;;;31.60;15.27;;;;;;;15.41;86.60;101004.38;4949532;28;20030;-47
2021/07/28 00:32:34;;;;;;;36.63;16.83;;;;;;;15.34;86.97;100993.88;4951219;28;20117;-50
2021/07/28 00:34:59;;;;;;;32.15;15.05;;;;;;;15.29;87.07;100999.16;4947821;28;20056;-51
2021/07/28 00:37:24;;;;;;;33.25;14.60;;;;;;;15.28;87.68;100993.91;4951711;28;20031;-46
2021/07/28 00:39:50;;;;;;;35.63;17.95;;;;;;;15.28;87.67;100993.91;4948684;28;20097;-50
2021/07/28 00:42:15;;;;;;;48.30;18.38;;;;;;;15.28;87.58;100996.53;4947850;28;20034;-50
2021/07/28 00:44:40;;;;;;;39.28;16.38;;;;;;;15.27;87.68;100986.91;4947862;28;20107;-48
2021/07/28 00:47:06;;;;;;;35.78;16.20;;;;;;;15.25;87.62;100988.66;4950151;28;20069;-47
2021/07/28 00:49:31;;;;;;;28.30;13.80;;;;;;;15.24;87.61;100984.31;4947520;28;20042;-48
2021/07/28 00:52:02;;;;;;;41.85;17.85;;;;;;;15.21;87.56;100982.53;4950753;28;20091;-47
2021/07/28 00:54:28;;;;;;;37.08;16.50;;;;;;;15.18;87.68;100973.81;4949287;28;20034;-48
2021/07/28 00:56:53;;;;;;;38.42;16.88;;;;;;;15.17;87.89;100975.56;4951000;28;20474;-48
2021/07/28 00:59:19;;;;;;;48.65;19.33;;;;;;;15.17;87.46;100986.06;4965587;28;20041;-47
2021/07/28 01:01:44;;;;;;;47.20;19.20;;;;;;;15.17;87.81;100980.81;4962469;28;20213;-49
2021/07/28 01:04:09;;;;;;;50.33;20.77;;;;;;;15.18;87.62;100972.06;4949094;28;20045;-49
2021/07/28 01:06:35;;;;;;;48.42;19.20;;;;;;;15.19;87.50;100970.28;4949265;28;20382;-48
2021/07/28 01:09:01;;;;;;;53.33;20.40;;;;;;;15.20;87.61;100966.78;4951748;28;20408;-50
2021/07/28 01:11:27;;;;;;;58.17;21.45;;;;;;;15.18;87.92;100963.31;4948925;28;20400;-49
2021/07/28 01:13:55;;;;;;;62.25;22.35;;;;;;;15.19;87.90;100970.28;4949830;28;20062;-48
2021/07/28 01:16:22;;;;;;;52.42;20.42;;;;;;;15.21;88.03;100964.16;4949915;28;20023;-52
2021/07/28 01:18:48;;;;;;;57.58;22.02;;;;;;;15.18;87.72;100961.56;4941614;28;20503;-48
2021/07/28 01:21:14;;;;;;;58.67;21.42;;;;;;;15.08;88.00;100962.47;4948440;28;20073;-47
2021/07/28 01:23:41;;;;;;;65.05;23.73;;;;;;;15.05;88.13;100959.84;4950371;28;20139;-51
2021/07/28 01:26:07;;;;;;;63.15;23.83;;;;;;;15.06;88.34;100953.75;4948058;28;20050;-47
2021/07/28 01:28:34;;;;;;;61.08;22.27;;;;;;;15.05;88.59;100959.84;4951644;28;20034;-52
2021/07/28 01:31:02;;;;;;;65.97;24.38;;;;;;;15.02;88.78;100955.47;4948436;28;20679;-48
2021/07/28 01:33:29;;;;;;;76.22;24.95;;;;;;;15.03;88.67;100956.34;4946855;28;20054;-52
2021/07/28 01:35:55;;;;;;;70.72;24.25;;;;;;;15.04;88.71;100955.47;4946320;28;20058;-50
2021/07/28 01:38:25;;;;;;;71.50;23.73;;;;;;;15.05;88.71;100951.97;4954916;28;20142;-48
2021/07/28 01:40:58;;;;;;;60.40;20.25;;;;;;;15.03;88.94;100958.97;4950945;28;20303;-51
2021/07/28 01:43:24;;;;;;;75.47;24.77;;;;;;;15.03;88.74;100945.84;4951605;28;20033;-47
2021/07/28 01:45:49;;;;;;;78.28;24.48;;;;;;;15.02;88.98;100938.84;4954195;28;20027;-51
2021/07/28 01:48:16;;;;;;;65.88;21.65;;;;;;;15.03;88.96;100936.22;4954171;28;20019;-50
2021/07/28 01:50:44;;;;;;;79.30;25.30;;;;;;;15.04;89.07;100937.09;4954478;28;20038;-50
2021/07/28 01:53:09;;;;;;;67.47;23.40;;;;;;;15.02;88.94;100938.84;4951491;28;20035;-52
2021/07/28 01:55:35;;;;;;;69.35;23.85;;;;;;;15.01;88.96;100935.34;4954374;28;20026;-49
2021/07/28 01:58:01;;;;;;;66.78;21.63;;;;;;;15.01;88.98;100930.09;4946540;28;20584;-48
2021/07/28 02:00:27;;;;;;;76.20;24.88;;;;;;;15.04;89.28;100939.72;4955899;28;20282;-49
2021/07/28 02:02:53;;;;;;;70.25;22.60;;;;;;;15.02;89.12;100941.47;4951322;28;20144;-49
2021/07/28 02:05:19;;;;;;;65.57;22.02;;;;;;;15.04;89.15;100942.34;4933667;28;20094;-48
2021/07/28 02:07:44;;;;;;;98.13;27.05;;;;;;;15.04;89.54;100934.47;4957286;28;20039;-47
2021/07/28 02:10:10;;;;;;;80.53;25.27;;;;;;;15.05;89.56;100936.22;4953279;28;20027;-48
2021/07/28 02:12:35;;;;;;;86.38;26.05;;;;;;;15.08;89.48;100935.31;4962191;28;20105;-48
2021/07/28 02:15:00;;;;;;;79.05;25.60;;;;;;;15.10;89.41;100931.81;4955314;28;20462;-48
2021/07/28 02:17:26;;;;;;;88.80;27.33;;;;;;;15.13;89.38;100925.66;4955606;28;20038;-50
2021/07/28 02:19:51;;;;;;;92.25;28.27;;;;;;;15.17;89.48;100927.41;4947808;28;20366;-48
2021/07/28 02:22:16;;;;;;;83.63;27.77;;;;;;;15.21;89.51;100934.41;4953105;28;20098;-49
2021/07/28 02:24:42;;;;;;;78.40;24.95;;;;;;;15.18;89.49;100930.06;4955656;28;20637;-48
2021/07/28 02:27:08;;;;;;;83.28;27.10;;;;;;;15.19;89.48;100928.28;4947630;28;20145;-53
2021/07/28 02:29:34;;;;;;;92.85;27.83;;;;;;;15.16;89.71;100926.53;4948644;28;20064;-46
2021/07/28 02:32:02;;;;;;;90.25;27.08;;;;;;;15.18;89.78;100927.44;4948296;28;20030;-51
2021/07/28 02:34:29;;;;;;;80.70;24.85;;;;;;;15.16;89.78;100929.19;4955448;28;20026;-51
2021/07/28 02:36:54;;;;;;;96.68;28.35;;;;;;;15.22;89.57;100929.16;4954392;28;20034;-53
2021/07/28 02:39:19;;;;;;;85.40;25.70;;;;;;;15.23;89.38;100936.16;4948429;28;20033;-48
2021/07/28 02:41:45;;;;;;;86.75;27.63;;;;;;;15.25;89.63;100923.88;4949867;28;20035;-46
2021/07/28 02:44:10;;;;;;;104.57;30.15;;;;;;;15.29;89.50;100927.38;4946552;28;20073;-47
2021/07/28 02:46:36;;;;;;;96.18;28.05;;;;;;;15.41;89.51;100928.19;4952716;28;20027;-48
2021/07/28 02:49:01;;;;;;;90.93;26.35;;;;;;;15.48;89.86;100926.38;4947599;28;20023;-49
2021/07/28 02:51:27;;;;;;;106.40;30.17;;;;;;;15.51;89.47;100922.84;4949566;28;20133;-48
2021/07/28 02:53:52;;;;;;;78.25;26.55;;;;;;;15.48;89.50;100920.25;4949617;28;20113;-48
2021/07/28 02:56:17;;;;;;;93.78;29.23;;;;;;;15.46;89.56;100924.63;4950145;28;20336;-47
2021/07/28 02:58:42;;;;;;;101.68;29.27;;;;;;;15.49;89.50;100930.75;4955589;28;20149;-48
2021/07/28 03:01:08;;;;;;;100.78;30.08;;;;;;;15.55;89.35;100929.88;4950091;28;20591;-49
2021/07/28 03:03:33;;;;;;;103.00;30.92;;;;;;;15.59;89.45;100923.72;4946806;28;20019;-53
2021/07/28 03:05:59;;;;;;;95.30;29.05;;;;;;;15.67;89.32;100924.56;4952688;28;20118;-47
2021/07/28 03:08:24;;;;;;;97.90;30.00;;;;;;;15.65;89.70;100921.94;4951453;28;20386;-51
2021/07/28 03:10:49;;;;;;;106.20;31.33;;;;;;;15.68;89.57;100923.66;4952682;28;20125;-48
2021/07/28 03:13:15;;;;;;;100.53;30.90;;;;;;;15.74;89.64;100920.97;4949725;28;20133;-52
2021/07/28 03:15:40;;;;;;;105.72;30.83;;;;;;;15.78;89.67;100920.09;4951455;28;20080;-52
2021/07/28 03:18:05;;;;;;;96.10;31.10;;;;;;;15.77;89.52;100919.22;4950819;28;20421;-49
2021/07/28 03:20:30;;;;;;;87.45;29.05;;;;;;;15.74;89.48;100918.34;4947948;28;20031;-48
2021/07/28 03:22:56;;;;;;;76.28;26.13;;;;;;;15.68;89.13;100923.66;4950552;28;20121;-49
2021/07/28 03:25:22;;;;;;;83.70;26.95;;;;;;;15.66;89.24;100920.19;4949819;28;20047;-48
2021/07/28 03:27:47;;;;;;;73.38;25.05;;;;;;;15.65;89.04;100921.06;4952129;28;20560;-49
2021/07/28 03:30:13;;;;;;;95.35;30.55;;;;;;;15.64;89.23;100921.94;4950477;28;20058;-50
2021/07/28 03:32:38;;;;;;;94.40;31.50;;;;;;;15.66;89.24;100915.78;4954926;28;20051;-49
2021/07/28 03:35:04;;;;;;;109.97;32.72;;;;;;;15.68;89.45;100918.38;4946235;28;20700;-47
2021/07/28 03:37:29;;;;;;;87.97;28.77;;;;;;;15.65;89.55;100911.41;4951290;28;20481;-48
2021/07/28 03:40:02;;;;;;;84.25;26.40;;;;;;;15.67;89.60;100914.03;4949830;28;20937;-51
2021/07/28 03:42:29;;;;;;;95.55;30.90;;;;;;;15.64;89.60;100909.66;4949342;28;20077;-49
2021/07/28 03:44:54;;;;;;;81.35;27.10;;;;;;;15.64;89.60;100919.31;4950599;28;20045;-50
2021/07/28 03:47:20;;;;;;;105.97;32.75;;;;;;;15.61;89.53;100912.34;4951584;28;20022;-50
2021/07/28 03:49:46;;;;;;;89.75;31.10;;;;;;;15.71;89.32;100911.38;4952001;28;20046;-53
2021/07/28 03:52:11;;;;;;;89.30;31.48;;;;;;;15.72;89.10;100914.88;4950197;28;20050;-51
2021/07/28 03:54:36;;;;;;;104.22;33.30;;;;;;;15.87;89.21;100909.50;4950408;28;20434;-49
2021/07/28 03:57:02;;;;;;;97.15;32.13;;;;;;;15.96;88.78;100904.19;4950021;28;20117;-50
2021/07/28 03:59:27;;;;;;;90.20;30.63;;;;;;;15.80;89.23;100905.16;4950427;28;20030;-51
2021/07/28 04:01:53;;;;;;;83.50;29.23;;;;;;;15.71;89.34;100908.75;4944967;28;20430;-48
2021/07/28 04:04:18;;;;;;;74.93;28.80;;;;;;;15.67;89.05;100920.19;4952076;28;20837;-51
2021/07/28 04:06:45;;;;;;;79.68;27.67;;;;;;;15.74;88.82;100908.72;4968523;28;20609;-51
2021/07/28 04:09:11;;;;;;;77.32;28.13;;;;;;;15.62;88.86;100911.41;4948149;28;20085;-49
2021/07/28 04:11:36;;;;;;;73.70;27.58;;;;;;;15.61;89.11;100908.81;4949560;28;20039;-49
2021/07/28 04:14:01;;;;;;;76.45;28.05;;;;;;;15.57;89.17;100905.31;4947973;28;20125;-49
2021/07/28 04:16:27;;;;;;;77.88;27.23;;;;;;;15.56;89.16;100910.59;4950811;28;20117;-51
2021/07/28 04:18:52;;;;;;;80.45;29.23;;;;;;;15.67;88.81;100911.41;4949370;28;20045;-50
2021/07/28 04:21:17;;;;;;;84.85;30.73;;;;;;;15.74;88.73;100913.97;4952824;28;20030;-50
2021/07/28 04:23:43;;;;;;;84.05;29.25;;;;;;;15.85;88.90;100910.41;4947502;28;20039;-47
2021/07/28 04:26:08;;;;;;;80.20;29.40;;;;;;;15.93;88.36;100912.06;4949243;28;20531;-49
2021/07/28 04:28:33;;;;;;;73.75;29.48;;;;;;;16.01;88.55;100905.00;4953768;28;20479;-48
2021/07/28 04:30:59;;;;;;;66.75;28.10;;;;;;;16.03;88.53;100905.00;4963671;28;20035;-47
2021/07/28 04:33:24;;;;;;;62.50;25.25;;;;;;;16.14;88.18;100917.16;4947750;28;20046;-47
2021/07/28 04:35:50;;;;;;;63.80;25.30;;;;;;;16.10;88.54;100910.16;4941551;28;20035;-49
2021/07/28 04:38:15;;;;;;;55.20;24.27;;;;;;;16.20;88.29;100914.50;4950947;28;20031;-48
2021/07/28 04:40:41;;;;;;;61.50;25.80;;;;;;;16.38;87.43;100909.94;4950244;28;20154;-51
2021/07/28 04:43:06;;;;;;;55.45;24.63;;;;;;;16.38;87.20;100910.81;4947234;28;20865;-53
2021/07/28 04:45:31;;;;;;;55.58;24.95;;;;;;;16.58;86.61;100914.13;4949542;28;20031;-50
2021/07/28 04:47:57;;;;;;;49.53;24.00;;;;;;;16.56;86.60;100915.00;4948981;28;20050;-49
2021/07/28 04:50:22;;;;;;;52.55;23.88;;;;;;;16.45;87.31;100920.38;4949460;28;20613;-49
2021/07/28 04:52:48;;;;;;;49.70;22.77;;;;;;;16.46;87.25;100914.25;4947831;28;20046;-48
2021/07/28 04:55:14;;;;;;;42.80;21.42;;;;;;;16.51;87.39;100906.28;4950695;28;20541;-49
2021/07/28 04:57:39;;;;;;;46.53;22.83;;;;;;;16.63;87.09;100906.19;4950283;28;20085;-50
2021/07/28 05:00:05;;;;;;;41.35;19.77;;;;;;;16.78;86.32;100905.13;4945048;28;20053;-48
2021/07/28 05:02:31;;;;;;;29.67;18.30;;;;;;;17.09;86.89;100908.28;4946064;28;20077;-50
2021/07/28 05:04:56;;;;;;;29.33;17.45;;;;;;;17.46;85.71;100906.91;4949484;28;20455;-48
2021/07/28 05:07:22;;;;;;;25.73;15.30;;;;;;;17.71;82.15;100900.41;4948745;28;20039;-51
2021/07/28 05:09:47;;;;;;;21.98;14.07;;;;;;;17.70;80.71;100910.97;4949070;28;20142;-52
2021/07/28 05:12:13;;;;;;;24.52;14.57;;;;;;;17.44;81.27;100906.91;4949172;28;20604;-49
2021/07/28 05:14:38;;;;;;;22.35;14.25;;;;;;;17.29;81.73;100901.88;4947325;28;20085;-49
2021/07/28 05:17:04;;;;;;;22.60;13.82;;;;;;;17.20;81.79;100909.03;4946348;28;20149;-48
2021/07/28 05:19:29;;;;;;;22.40;12.95;;;;;;;17.19;82.98;100913.44;4950315;28;20027;-50
2021/07/28 05:21:55;;;;;;;21.85;13.23;;;;;;;17.14;82.76;100901.22;4948405;28;20105;-50
2021/07/28 05:24:20;;;;;;;21.23;12.07;;;;;;;17.10;83.03;100910.91;4947339;28;20035;-50
2021/07/28 05:26:45;;;;;;;17.20;10.60;;;;;;;16.96;82.61;100900.53;4949156;28;20487;-50
2021/07/28 05:29:11;;;;;;;21.00;10.82;;;;;;;16.92;82.22;100903.22;4950113;28;20502;-53
2021/07/28 05:31:36;;;;;;;17.40;10.50;;;;;;;17.00;81.71;100904.88;4949063;28;20404;-50
2021/07/28 05:34:02;;;;;;;19.83;11.15;;;;;;;16.81;83.02;100913.03;4947976;28;20031;-49
2021/07/28 05:36:27;;;;;;;17.67;11.15;;;;;;;16.84;82.09;100907.69;4950299;28;20050;-51
2021/07/28 05:38:52;;;;;;;21.20;11.55;;;;;;;16.87;82.90;100902.41;4950134;28;20085;-52
2021/07/28 05:41:18;;;;;;;21.30;11.65;;;;;;;17.01;82.62;100903.13;4946073;28;20090;-49
2021/07/28 05:43:43;;;;;;;21.88;11.98;;;;;;;17.08;82.29;100902.13;4947310;28;20041;-48
2021/07/28 05:46:09;;;;;;;23.58;12.38;;;;;;;17.15;82.14;100902.94;4952374;28;20027;-51
2021/07/28 05:48:34;;;;;;;22.52;13.18;;;;;;;17.15;82.48;100905.56;4947985;28;20489;-50
2021/07/28 05:51:00;;;;;;;22.73;12.80;;;;;;;17.45;82.00;100902.50;4945519;28;20093;-51
2021/07/28 05:53:25;;;;;;;19.33;11.85;;;;;;;17.73;79.76;100895.13;4952152;28;20565;-51
2021/07/28 05:55:51;;;;;;;17.90;11.18;;;;;;;18.04;77.65;100906.03;4946799;28;20470;-50
2021/07/28 05:58:16;;;;;;;19.73;11.40;;;;;;;17.99;77.94;100902.63;4948244;28;20026;-48
2021/07/28 06:00:41;;;;;;;20.35;11.82;;;;;;;17.88;78.76;100896.63;4949812;28;20522;-49
2021/07/28 06:03:07;;;;;;;16.08;10.50;;;;;;;18.09;79.24;100897.16;4949029;28;20550;-52
2021/07/28 06:05:32;;;;;;;19.45;10.70;;;;;;;18.13;76.96;100900.59;4949156;28;20027;-48
2021/07/28 06:07:58;;;;;;;18.95;11.05;;;;;;;18.23;76.77;100894.28;4952606;28;20582;-52
2021/07/28 06:10:23;;;;;;;16.75;10.43;;;;;;;18.25;76.85;100895.09;4948704;28;20661;-52
2021/07/28 06:12:49;;;;;;;17.45;9.60;;;;;;;18.11;77.12;100897.97;4950596;28;20031;-49
2021/07/28 06:15:14;;;;;;;16.70;9.90;;;;;;;18.03;78.42;100891.09;4950541;28;20041;-48
2021/07/28 06:17:39;;;;;;;16.00;9.80;;;;;;;18.06;78.60;100897.19;4948744;28;20511;-47
2021/07/28 06:20:05;;;;;;;16.52;9.02;;;;;;;17.81;77.56;100890.56;4950797;28;20033;-47
2021/07/28 06:22:31;;;;;;;14.50;9.05;;;;;;;17.71;78.28;100886.34;4947254;28;20042;-50
2021/07/28 06:24:57;;;;;;;14.02;8.88;;;;;;;17.72;78.69;100888.97;4953753;28;20043;-49
2021/07/28 06:27:22;;;;;;;13.55;9.35;;;;;;;17.60;79.97;100889.16;4971097;28;20030;-52
2021/07/28 06:29:47;;;;;;;18.27;9.52;;;;;;;17.51;79.73;100885.72;4953517;28;20113;-50
2021/07/28 06:32:13;;;;;;;15.27;8.80;;;;;;;17.58;79.38;100895.28;4949002;28;20066;-49
2021/07/28 06:34:38;;;;;;;16.50;8.68;;;;;;;17.47;79.33;100898.09;4952509;28;20034;-47
2021/07/28 06:37:03;;;;;;;21.58;8.82;;;;;;;17.34;79.66;100896.53;4954043;28;20122;-52
2021/07/28 06:39:29;;;;;;;14.25;8.65;;;;;;;17.50;78.99;100891.94;4944106;28;20706;-50
2021/07/28 06:41:54;;;;;;;17.73;9.07;;;;;;;17.57;78.89;100902.34;4952857;28;20101;-49
2021/07/28 06:44:19;;;;;;;16.83;9.10;;;;;;;17.57;79.03;100901.47;4955553;28;20688;-51
2021/07/28 06:46:45;;;;;;;17.10;9.70;;;;;;;17.84;77.53;100895.81;4950895;28;20089;-47
2021/07/28 06:49:10;;;;;;;17.08;9.15;;;;;;;17.90;77.36;100900.13;4952788;28;20127;-50
2021/07/28 06:51:35;;;;;;;16.20;9.60;;;;;;;17.82;77.70;100890.56;4950945;28;20121;-47
2021/07/28 06:54:02;;;;;;;19.23;10.20;;;;;;;17.85;78.64;100892.28;4952407;28;20364;-50
2021/07/28 06:56:28;;;;;;;18.50;10.18;;;;;;;17.88;77.76;100892.22;4946841;28;20085;-52
2021/07/28 06:58:53;;;;;;;14.68;9.48;;;;;;;18.00;77.88;100901.69;4950212;28;20039;-48
2021/07/28 07:01:19;;;;;;;15.23;9.38;;;;;;;17.99;77.37;100895.53;4952944;28;20206;-49
2021/07/28 07:03:44;;;;;;;17.98;9.25;;;;;;;18.14;76.87;100890.03;4946068;28;20030;-51
2021/07/28 07:06:09;;;;;;;19.65;10.02;;;;;;;18.29;76.71;100885.38;4945630;28;20031;-50
2021/07/28 07:08:35;;;;;;;17.73;9.80;;;;;;;18.44;77.70;100883.31;4946334;28;20445;-49
2021/07/28 07:11:00;;;;;;;16.70;9.32;;;;;;;18.36;77.67;100885.22;4948684;28;20033;-48
2021/07/28 07:13:26;;;;;;;16.70;8.38;;;;;;;18.27;76.55;100880.13;4943684;28;20035;-48
2021/07/28 07:15:51;;;;;;;16.88;8.70;;;;;;;18.16;76.63;100887.38;4951509;28;20117;-48
2021/07/28 07:18:17;;;;;;;15.23;8.40;;;;;;;18.29;76.65;100890.66;4949695;28;20042;-50
2021/07/28 07:20:42;;;;;;;18.77;8.55;;;;;;;18.27;77.04;100888.03;4948617;28;20037;-48
2021/07/28 07:23:08;;;;;;;14.13;8.57;;;;;;;18.04;76.77;100884.94;4949499;28;20369;-47
2021/07/28 07:25:33;;;;;;;13.63;8.20;;;;;;;18.15;77.74;100888.25;4946964;28;20234;-49
2021/07/28 07:28:00;;;;;;;15.23;8.77;;;;;;;18.46;77.03;100886.81;4950531;28;20027;-47
2021/07/28 07:30:25;;;;;;;13.10;8.45;;;;;;;18.37;76.66;100889.59;4948961;28;20050;-47
2021/07/28 07:35:35;;;;;;;19.55;8.40;;;;;;;18.79;74.98;100890.59;4942854;28;20053;-49
2021/07/28 07:38:00;;;;;;;13.88;8.30;;;;;;;18.88;74.43;100898.34;4949163;28;20038;-50
2021/07/28 07:40:25;;;;;;;14.55;7.40;;;;;;;18.95;72.73;100883.22;4948170;28;20661;-49
2021/07/28 07:42:51;;;;;;;15.80;7.32;;;;;;;19.17;72.01;100881.88;4948404;28;20436;-49
2021/07/28 07:45:16;;;;;;;15.43;7.60;;;;;;;18.94;74.30;100881.50;4947415;28;20022;-49
2021/07/28 07:47:42;;;;;;;14.82;8.00;;;;;;;19.02;73.83;100882.22;4946914;28;20328;-50
2021/07/28 07:50:08;;;;;;;14.18;7.57;;;;;;;19.07;71.85;100888.25;4950164;28;20035;-47
2021/07/28 07:52:33;;;;;;;14.07;7.68;;;;;;;19.00;71.84;100889.28;4947304;28;20092;-52
2021/07/28 07:54:58;;;;;;;14.18;7.90;;;;;;;19.05;72.27;100877.72;4947345;28;20035;-49
2021/07/28 07:57:24;;;;;;;14.57;8.45;;;;;;;18.84;73.68;100895.78;4950070;28;20093;-51
2021/07/28 07:59:49;;;;;;;15.75;7.70;;;;;;;18.90;72.59;100896.53;4950007;28;20162;-48
2021/07/28 08:02:15;;;;;;;15.23;7.85;;;;;;;18.88;72.57;100890.41;4946878;28;20046;-50
2021/07/28 08:04:40;;;;;;;14.48;7.55;;;;;;;18.85;72.82;100895.75;4945704;28;20062;-50
2021/07/28 08:07:06;;;;;;;13.52;8.32;;;;;;;18.80;73.69;100899.38;4947063;28;20507;-51
2021/07/28 08:09:31;;;;;;;17.13;7.93;;;;;;;18.68;73.02;100900.50;4959530;28;20303;-47
2021/07/28 08:11:57;;;;;;;16.10;8.18;;;;;;;18.68;72.70;100895.22;4951700;28;20118;-52
2021/07/28 08:14:23;;;;;;;13.50;7.68;;;;;;;18.75;72.81;100899.47;4952500;28;20030;-49
2021/07/28 08:16:48;;;;;;;14.52;7.63;;;;;;;18.72;73.22;100891.63;4945090;28;20399;-51
2021/07/28 08:19:14;;;;;;;17.73;7.82;;;;;;;18.64;73.74;100901.47;4949317;28;20117;-50
2021/07/28 08:21:39;;;;;;;12.60;6.97;;;;;;;18.58;73.44;100899.81;4944880;28;20037;-49
2021/07/28 08:24:05;;;;;;;15.57;8.05;;;;;;;18.61;73.28;100897.09;4950893;28;20429;-48
2021/07/28 08:26:30;;;;;;;13.90;7.47;;;;;;;18.62;72.62;100890.91;4943740;28;20170;-51
2021/07/28 08:28:56;;;;;;;14.02;7.55;;;;;;;18.50;73.52;100899.03;4943023;28;20113;-49
2021/07/28 08:31:21;;;;;;;16.05;7.95;;;;;;;18.33;75.35;100902.88;4948775;28;20042;-50
2021/07/28 08:33:48;;;;;;;16.65;7.72;;;;;;;18.30;74.18;100901.16;4944129;28;20906;-50
2021/07/28 08:36:14;;;;;;;16.98;7.68;;;;;;;18.24;74.82;100910.06;4949491;28;20031;-50
2021/07/28 08:38:39;;;;;;;13.88;7.88;;;;;;;18.58;74.67;100897.19;4946306;28;20911;-49
2021/07/28 08:41:04;;;;;;;15.68;7.70;;;;;;;18.92;72.67;100901.78;4946972;28;20083;-50
2021/07/28 08:43:34;;;;;;;15.18;7.70;;;;;;;19.14;73.81;100896.94;4946465;28;20167;-48
2021/07/28 08:46:05;;;;;;;17.38;7.93;;;;;;;19.43;71.76;100899.78;4960743;28;20504;-51
2021/07/28 08:48:31;;;;;;;13.80;8.02;;;;;;;19.69;70.33;100886.00;4946176;28;20578;-48
2021/07/28 08:50:58;;;;;;;17.90;8.10;;;;;;;19.72;69.20;100878.88;4947062;28;20156;-49
2021/07/28 08:53:23;;;;;;;15.55;7.53;;;;;;;19.79;68.65;100893.69;4960444;28;20479;-50
2021/07/28 08:55:51;;;;;;;13.20;7.40;;;;;;;19.80;69.86;100900.72;4943316;28;20031;-51
2021/07/28 08:58:18;;;;;;;12.45;7.90;;;;;;;19.51;69.57;100895.25;4948638;28;20026;-47
2021/07/28 09:00:45;;;;;;;16.33;7.65;;;;;;;19.51;70.02;100899.66;4946609;28;20243;-48
2021/07/28 09:03:11;;;;;;;16.73;7.85;;;;;;;19.48;70.60;100897.06;4944036;28;20351;-49
2021/07/28 09:05:44;;;;;;;14.32;7.32;;;;;;;19.60;69.34;100895.03;4944588;28;20031;-49
2021/07/28 09:08:35;;;;;;;12.50;7.28;;;;;;;19.65;70.45;100900.19;4946010;28;20065;-49
2021/07/28 09:11:03;;;;;;;13.27;7.32;;;;;;;19.80;69.78;100887.50;4945697;28;20047;-49
2021/07/28 09:13:42;;;;;;;12.60;7.78;;;;;;;19.75;69.88;100892.03;4946782;28;20028;-48
2021/07/28 09:16:12;;;;;;;15.68;7.82;;;;;;;19.75;70.20;100893.81;4946195;28;20046;-48
2021/07/28 09:18:42;;;;;;;15.73;8.30;;;;;;;20.01;69.22;100894.00;4948144;28;20083;-49
2021/07/28 09:21:20;;;;;;;22.42;8.43;;;;;;;20.21;69.15;100893.50;4948138;28;20030;-48
2021/07/28 09:23:55;;;;;;;11.55;7.00;;;;;;;20.22;68.25;100901.44;4945942;28;20451;-48
2021/07/28 09:26:34;;;;;;;14.38;7.55;;;;;;;19.97;68.15;100894.13;4932629;28;20134;-49
2021/07/28 09:29:12;;;;;;;14.57;7.13;;;;;;;19.99;68.35;100897.63;4936785;28;20061;-51
2021/07/28 09:31:43;;;;;;;15.57;7.63;;;;;;;19.95;68.88;100904.75;4949978;28;20106;-49
2021/07/28 09:34:29;;;;;;;12.93;6.95;;;;;;;20.31;67.08;100899.47;4941650;28;20376;-51
2021/07/28 09:36:58;;;;;;;11.40;7.05;;;;;;;20.47;67.00;100898.16;4949558;28;20386;-50
2021/07/28 09:39:28;;;;;;;13.95;7.00;;;;;;;20.42;67.23;100898.31;4946007;28;20117;-48
2021/07/28 09:41:56;;;;;;;17.20;6.95;;;;;;;20.32;66.64;100906.47;4937301;28;20513;-52
2021/07/28 09:44:25;;;;;;;12.07;6.93;;;;;;;20.36;65.87;100900.25;4949982;28;20023;-49
2021/07/28 09:47:03;;;;;;;14.65;6.63;;;;;;;20.31;66.87;100892.34;4946021;28;20035;-50
2021/07/28 09:49:28;;;;;;;16.15;6.60;;;;;;;20.55;66.00;100896.19;4950495;28;20034;-51
2021/07/28 09:51:54;;;;;;;14.20;6.90;;;;;;;20.70;66.37;100893.09;4943476;28;20027;-48
2021/07/28 09:54:19;;;;;;;12.98;6.50;;;;;;;20.78;64.59;100899.06;4932157;28;20349;-51
2021/07/28 09:56:52;;;;;;;13.18;6.47;;;;;;;21.17;64.02;100893.53;4945827;28;20296;-49
2021/07/28 09:59:18;;;;;;;14.23;6.22;;;;;;;21.38;63.52;100907.03;4949278;28;20035;-50
2021/07/28 10:01:44;;;;;;;14.77;6.15;;;;;;;21.41;63.32;100895.44;4967208;28;20089;-47
2021/07/28 10:04:16;;;;;;;12.35;6.10;;;;;;;21.29;63.73;100898.47;4949611;28;20040;-52
2021/07/28 10:06:43;;;;;;;11.98;6.07;;;;;;;21.52;63.31;100889.81;4951957;28;20123;-52
2021/07/28 10:09:16;;;;;;;15.48;6.05;;;;;;;21.53;63.16;100895.06;4948225;28;20031;-52
2021/07/28 10:11:49;;;;;;;15.10;6.35;;;;;;;21.51;62.37;100896.91;4947648;28;20209;-52
2021/07/28 10:14:19;;;;;;;15.18;5.97;;;;;;;21.51;61.63;100901.34;4949703;28;20062;-51
2021/07/28 10:16:45;;;;;;;15.43;6.10;;;;;;;21.39;62.51;100890.22;4948593;28;20034;-51
2021/07/28 10:19:11;;;;;;;12.63;5.32;;;;;;;21.48;63.17;100891.69;4952402;28;20042;-47
2021/07/28 10:21:37;;;;;;;10.65;5.20;;;;;;;21.87;62.61;100894.88;4951689;28;20062;-52
2021/07/28 10:24:03;;;;;;;11.90;5.15;;;;;;;21.90;61.25;100885.91;4951685;28;20822;-50
2021/07/28 10:26:32;;;;;;;13.32;5.88;;;;;;;21.86;63.71;100887.81;4950494;28;20102;-51
2021/07/28 10:28:58;;;;;;;9.30;5.18;;;;;;;22.15;60.06;100871.81;4951577;28;20105;-50
2021/07/28 10:31:25;;;;;;;14.70;5.32;;;;;;;22.08;59.68;100890.69;4944629;28;20121;-49
2021/07/28 10:33:55;;;;;;;11.50;4.68;;;;;;;22.08;60.37;100890.69;4948656;28;20270;-49
2021/07/28 10:36:46;;;;;;;10.05;5.10;;;;;;;22.09;61.12;100893.25;4950049;28;20069;-50
2021/07/28 10:39:11;;;;;;;14.25;5.32;;;;;;;22.12;61.07;100895.81;4967783;28;20399;-47
2021/07/28 10:41:36;;;;;;;8.98;4.88;;;;;;;21.91;62.92;100903.59;4946550;28;20027;-49
2021/07/28 10:44:30;;;;;;;9.38;5.20;;;;;;;21.84;62.91;100892.31;4953289;28;20039;-54
2021/07/28 10:46:56;;;;;;;8.57;4.85;;;;;;;22.21;59.84;100891.97;4952234;28;20121;-48
2021/07/28 10:49:36;;;;;;;9.65;4.93;;;;;;;22.16;58.78;100902.75;4949128;28;20159;-48
2021/07/28 10:52:05;;;;;;;8.57;4.82;;;;;;;21.98;61.34;100900.72;4949714;28;20038;-53
2021/07/28 10:54:47;;;;;;;9.30;5.03;;;;;;;21.80;60.52;100893.31;4943355;28;20459;-51
2021/07/28 10:57:32;;;;;;;9.63;4.90;;;;;;;21.68;61.51;100896.38;4953602;28;20023;-50
2021/07/28 10:59:58;;;;;;;13.98;5.10;;;;;;;21.62;61.46;100885.97;4947892;28;20049;-48
2021/07/28 11:02:23;;;;;;;8.43;4.68;;;;;;;21.70;61.32;100897.22;4945987;28;20419;-49
2021/07/28 11:05:17;;;;;;;9.85;4.85;;;;;;;21.62;61.97;100909.84;4951430;28;20031;-49
2021/07/28 11:08:01;;;;;;;;;;;;;;;21.85;61.01;100902.88;4952628;28;20035;-49
2021/07/28 11:10:26;;;;;;;11.05;4.97;;;;;;;21.95;61.74;100907.91;4947590;28;19925;-51
2021/07/28 11:12:52;;;;;;;11.50;4.90;;;;;;;22.33;60.23;100896.00;4949743;28;20585;-47
2021/07/28 11:15:18;;;;;;;13.57;4.65;;;;;;;22.61;59.43;100905.63;4950864;28;20035;-47
2021/07/28 11:17:44;;;;;;;11.05;4.50;;;;;;;22.64;60.20;100902.84;4950068;28;20038;-47